Airfield :







YOU CAN JOIN US ON...

 
LOGIN :

Register | Disclaimer

   EN    FR    IT 

 









Legend :    VFR   Marginal VFR   IFR   Intensive IFR   Very Intensive IFR
Visi :
Ceiling :
>= 8 km
>= 3000ft
5 to 8 km
1000 to 3000 ft
1500m to 5 km
500 to 1000 ft
800 to 1500m
200 to 500 ft
< 800m
< 200 ft
Symbols :   Thunderstorms  Fog  Heavy snow  Heavy precipitations  Wind > 20 kt






- Airport Elevation : 170 ft
- IATA code : SKB


TKPK - Bradshaw Int.

CURRENT METAR :
  • 151700Z 06015KT 9999 SCT021 29/23 Q1016

EXPIRED METARs :
  • 151600Z 08017KT 9999 SCT018 30/24 Q1017
  • 151500Z 07015KT 9999 SCT021 29/24 Q1018

TAF TKPK
Valid from the 15 at 18:00 until the 16 at 18:00 UTC


151740Z 1518/1618 07012KT P6SM VCSH SCT018 AMD NOT SKED 1602/1611



MET'MAP, your aeronautical weather chart ! - Copyright ORBIFLY December 2007 - Disclaimer

ORBIFLY MET'MAP TEAM :

Programming & Development : Alexandra Zaïnal
Concept & original design : Baudouin d'Aumeries
Assistance for programming : Marc-Olivier Méhu
Technical & hardware support : Manuel Goepfert

Contact : metmap@orbifly.com




SOURCES & CREDITS :

   NOAA